N22318 KMYF-KCRQ
Flight info
| Callsign | N22318 |
|---|---|
| Flight time | N/A |
| Altitude | |
| Route | |
| Aircraft | C172/L-DOV/C |
Departure
| Time | 2026-05-09 04:24 |
|---|---|
| Airport | Montgomery-Gibbs Executive Airport (KMYF) |
Arrival
| Time | N/A |
|---|---|
| Airport | McClellan-Palomar Airport (KCRQ) |
| Time | Latitude | Longitude | Altitude | Speed | Heading |
|---|---|---|---|---|---|
| 2026-05-09 04:12 | 32.81351 | -117.13974 | 424 ft | 0 kts | 23° |
| 2026-05-09 04:21 | 32.81373 | -117.13943 | 421 ft | 16 kts | 72° |
| 2026-05-09 04:21 | 32.81155 | -117.13377 | 425 ft | 38 kts | 119° |
| 2026-05-09 04:22 | 32.81169 | -117.13179 | 424 ft | 17 kts | 54° |
| 2026-05-09 04:22 | 32.81207 | -117.13147 | 421 ft | 0 kts | 25° |
| 2026-05-09 04:23 | 32.81231 | -117.13133 | 423 ft | 11 kts | 27° |
| 2026-05-09 04:23 | 32.81320 | -117.13210 | 423 ft | 34 kts | 295° |
| 2026-05-09 04:23 | 32.81490 | -117.13638 | 416 ft | 77 kts | 296° |
| 2026-05-09 04:23 | 32.81732 | -117.14288 | 554 ft | 86 kts | 294° |
| 2026-05-09 04:24 | 32.81915 | -117.14942 | 803 ft | 83 kts | 282° |
| 2026-05-09 04:24 | 32.81867 | -117.15653 | 943 ft | 94 kts | 258° |
| 2026-05-09 04:24 | 32.81669 | -117.16365 | 1215 ft | 87 kts | 249° |
| 2026-05-09 04:24 | 32.81399 | -117.16990 | 1454 ft | 86 kts | 239° |
| 2026-05-09 04:25 | 32.81099 | -117.17658 | 1575 ft | 96 kts | 253° |
| 2026-05-09 04:25 | 32.80876 | -117.18374 | 1850 ft | 89 kts | 246° |
| 2026-05-09 04:25 | 32.80602 | -117.19094 | 1887 ft | 106 kts | 247° |
| 2026-05-09 04:25 | 32.80250 | -117.20053 | 1613 ft | 131 kts | 247° |
| 2026-05-09 04:26 | 32.79901 | -117.20997 | 1712 ft | 123 kts | 246° |
| 2026-05-09 04:26 | 32.79558 | -117.21910 | 1827 ft | 120 kts | 250° |
| 2026-05-09 04:26 | 32.79383 | -117.22896 | 1830 ft | 124 kts | 261° |
| 2026-05-09 04:26 | 32.79236 | -117.23918 | 1834 ft | 126 kts | 261° |
| 2026-05-09 04:27 | 32.79087 | -117.24944 | 1834 ft | 127 kts | 261° |
| 2026-05-09 04:27 | 32.78936 | -117.25978 | 1837 ft | 127 kts | 261° |
| 2026-05-09 04:27 | 32.78784 | -117.27009 | 1839 ft | 126 kts | 261° |
| 2026-05-09 04:27 | 32.78641 | -117.27989 | 2044 ft | 111 kts | 262° |
| 2026-05-09 04:28 | 32.78620 | -117.28868 | 2216 ft | 107 kts | 290° |
| 2026-05-09 04:28 | 32.78915 | -117.29660 | 2410 ft | 99 kts | 295° |
| 2026-05-09 04:28 | 32.79196 | -117.30391 | 2614 ft | 94 kts | 296° |
| 2026-05-09 04:28 | 32.79422 | -117.31072 | 2879 ft | 82 kts | 288° |
| 2026-05-09 04:29 | 32.79579 | -117.31691 | 3106 ft | 78 kts | 285° |
| 2026-05-09 04:29 | 32.79695 | -117.32330 | 3260 ft | 81 kts | 284° |
| 2026-05-09 04:29 | 32.79755 | -117.32993 | 3407 ft | 84 kts | 278° |